Time;durP1;ratioP1;P1;durP2;ratioP2;P2;SDS_P1;SDS_P2;PMS_P1;PMS_P2;Temp;Humidity;BMP_temperature;BMP_pressure;BME280_temperature;BME280_humidity;BME280_pressure;Samples;Min_cycle;Max_cycle;Signal;HPM_P1;HPM_P2
2022/04/28 00:00:01;;;;;;;14.00;12.50;;;8.10;99.90;;;;;;5027926;28;20445;-52
2022/04/28 00:02:28;;;;;;;13.20;11.80;;;8.00;99.90;;;;;;5030263;28;20441;-51
2022/04/28 00:04:54;;;;;;;12.37;11.17;;;7.90;99.90;;;;;;5028475;28;20441;-51
2022/04/28 00:07:20;;;;;;;13.83;12.40;;;7.90;99.90;;;;;;5030456;28;20532;-50
2022/04/28 00:09:45;;;;;;;15.53;12.37;;;7.80;99.90;;;;;;5030349;28;20552;-51
2022/04/28 00:12:12;;;;;;;12.67;11.37;;;7.80;99.90;;;;;;5020393;28;20186;-53
2022/04/28 00:14:38;;;;;;;13.73;11.93;;;7.70;99.90;;;;;;5021554;28;20172;-52
2022/04/28 00:17:04;;;;;;;13.60;12.10;;;7.60;99.90;;;;;;5023740;28;21235;-55
2022/04/28 00:19:29;;;;;;;14.13;12.57;;;7.50;99.90;;;;;;5028270;28;20642;-54
2022/04/28 00:21:55;;;;;;;13.30;11.90;;;7.40;99.90;;;;;;5029936;28;20452;-51
2022/04/28 00:24:20;;;;;;;13.90;12.13;;;7.40;99.90;;;;;;5025536;28;20194;-52
2022/04/28 00:26:46;;;;;;;14.47;12.13;;;7.30;99.90;;;;;;5024386;28;20700;-51
2022/04/28 00:29:11;;;;;;;14.23;12.73;;;7.10;99.90;;;;;;5025639;28;20191;-53
2022/04/28 00:31:37;;;;;;;13.47;11.60;;;7.10;99.90;;;;;;5027119;28;20199;-50
2022/04/28 00:34:03;;;;;;;13.97;12.30;;;7.00;99.90;;;;;;5027536;28;20187;-51
2022/04/28 00:36:29;;;;;;;14.20;12.70;;;7.00;99.90;;;;;;5029106;28;21380;-52
2022/04/28 00:38:54;;;;;;;14.03;12.60;;;6.90;99.90;;;;;;5028021;28;20445;-49
2022/04/28 00:41:20;;;;;;;13.30;11.97;;;6.90;99.90;;;;;;5029515;28;20175;-54
2022/04/28 00:43:53;;;;;;;14.13;12.50;;;6.80;99.90;;;;;;5028128;28;20253;-51
2022/04/28 00:46:20;;;;;;;14.70;13.07;;;6.70;99.90;;;;;;5020078;28;20198;-52
2022/04/28 00:51:50;;;;;;;13.77;12.38;;;6.70;99.90;;;;;;5046119;28;20205;-53
2022/04/28 00:54:16;;;;;;;13.95;12.45;;;6.60;99.90;;;;;;5044047;28;20744;-51
2022/04/28 00:56:42;;;;;;;14.47;12.77;;;6.50;99.90;;;;;;5037460;28;20195;-51
2022/04/28 00:59:09;;;;;;;12.97;11.60;;;6.50;99.90;;;;;;5027313;28;20290;-53
2022/04/28 01:01:35;;;;;;;13.70;12.30;;;6.50;99.90;;;;;;5026138;28;21236;-49
2022/04/28 01:04:01;;;;;;;13.65;12.25;;;6.50;99.90;;;;;;5028309;28;20186;-49
2022/04/28 01:06:26;;;;;;;14.20;12.67;;;6.40;99.90;;;;;;5030315;28;20203;-51
2022/04/28 01:08:52;;;;;;;16.67;13.07;;;6.40;99.90;;;;;;5028647;28;20191;-49
2022/04/28 01:11:19;;;;;;;15.27;13.40;;;6.40;99.90;;;;;;5029793;28;20249;-54
2022/04/28 01:13:45;;;;;;;16.48;14.02;;;6.30;99.90;;;;;;5024693;28;20191;-50
2022/04/28 01:16:13;;;;;;;14.15;12.65;;;6.30;99.90;;;;;;5025752;28;20187;-53
2022/04/28 01:18:39;;;;;;;15.20;13.07;;;6.20;99.90;;;;;;5041859;28;20175;-50
2022/04/28 01:21:06;;;;;;;15.15;13.40;;;6.20;99.90;;;;;;5026383;28;20186;-53
2022/04/28 01:23:33;;;;;;;16.42;12.77;;;6.20;99.90;;;;;;5028391;28;20660;-54
2022/04/28 01:25:59;;;;;;;14.15;12.65;;;6.20;99.90;;;;;;5024841;28;20201;-54
2022/04/28 01:28:29;;;;;;;16.63;13.77;;;6.20;99.90;;;;;;5023884;28;20183;-52
2022/04/28 01:30:55;;;;;;;15.38;12.38;;;6.20;99.90;;;;;;5029611;28;20222;-50
2022/04/28 01:33:21;;;;;;;14.35;12.85;;;6.20;99.90;;;;;;5026875;28;20229;-55
2022/04/28 01:35:47;;;;;;;14.57;12.97;;;6.10;99.90;;;;;;5030698;28;20592;-51
2022/04/28 01:38:12;;;;;;;13.90;12.40;;;6.10;99.90;;;;;;5023133;28;21028;-52
2022/04/28 01:40:38;;;;;;;14.53;12.47;;;6.00;99.90;;;;;;5029359;28;20938;-51
2022/04/28 01:43:03;;;;;;;15.33;12.90;;;6.00;99.90;;;;;;5023291;28;20203;-52
2022/04/28 01:45:29;;;;;;;17.07;12.83;;;6.00;99.90;;;;;;5027397;28;20222;-53
2022/04/28 01:47:55;;;;;;;14.33;12.77;;;5.90;99.90;;;;;;5020903;28;20198;-52
2022/04/28 01:50:21;;;;;;;17.10;13.10;;;5.90;99.90;;;;;;5024874;28;20464;-50
2022/04/28 01:55:31;;;;;;;13.63;12.05;;;5.90;99.90;;;;;;5028666;28;20260;-61
2022/04/28 01:57:57;;;;;;;13.65;12.25;;;5.80;99.90;;;;;;5025986;28;20175;-60
2022/04/28 02:00:23;;;;;;;17.85;14.05;;;5.80;99.90;;;;;;5027954;28;20189;-60
2022/04/28 02:02:48;;;;;;;15.97;12.83;;;5.80;99.90;;;;;;5027575;28;20187;-61
2022/04/28 02:05:14;;;;;;;16.97;13.10;;;5.70;99.90;;;;;;5030243;28;20224;-60
2022/04/28 02:07:39;;;;;;;16.53;13.30;;;5.70;99.90;;;;;;5028494;28;20183;-60
2022/04/28 02:10:06;;;;;;;16.73;13.70;;;5.60;99.90;;;;;;5039974;28;20221;-61
2022/04/28 02:12:32;;;;;;;14.82;13.10;;;5.60;99.90;;;;;;5028788;28;20187;-60
2022/04/28 02:14:57;;;;;;;18.30;13.75;;;5.50;99.90;;;;;;5028103;28;20795;-60
2022/04/28 02:17:25;;;;;;;16.03;13.00;;;5.50;99.90;;;;;;5026447;28;20191;-61
2022/04/28 02:19:51;;;;;;;15.82;12.77;;;5.50;99.90;;;;;;5019269;28;20186;-60
2022/04/28 02:22:16;;;;;;;16.23;13.47;;;5.50;99.90;;;;;;5028965;28;20190;-61
2022/04/28 02:24:43;;;;;;;15.87;13.27;;;5.50;99.90;;;;;;5027236;28;20472;-60
2022/04/28 02:27:09;;;;;;;15.00;13.40;;;5.40;99.90;;;;;;5029478;28;20453;-60
2022/04/28 02:29:34;;;;;;;15.50;13.85;;;5.40;99.90;;;;;;5023459;28;20210;-59
2022/04/28 02:32:00;;;;;;;16.77;14.20;;;5.40;99.90;;;;;;5028941;28;20675;-61
2022/04/28 02:34:26;;;;;;;15.97;12.40;;;5.40;99.90;;;;;;5030826;28;20228;-61
2022/04/28 02:36:52;;;;;;;15.68;13.82;;;5.30;99.90;;;;;;5027418;28;21223;-54
2022/04/28 02:39:18;;;;;;;15.37;13.33;;;5.30;99.90;;;;;;5026420;28;20175;-60
2022/04/28 02:41:45;;;;;;;14.70;12.55;;;5.30;99.90;;;;;;5025735;28;20228;-61
2022/04/28 02:44:12;;;;;;;17.45;14.60;;;5.30;99.90;;;;;;5027442;28;20210;-60
2022/04/28 02:46:38;;;;;;;17.55;14.27;;;5.30;99.90;;;;;;5030164;28;20265;-60
2022/04/28 02:49:04;;;;;;;15.65;13.70;;;5.30;99.90;;;;;;5028870;28;20183;-60
2022/04/28 02:51:30;;;;;;;15.52;12.65;;;5.20;99.90;;;;;;5013481;28;20175;-60
2022/04/28 02:53:55;;;;;;;16.87;13.97;;;5.20;99.90;;;;;;5028322;28;20230;-60
2022/04/28 02:56:21;;;;;;;17.83;14.27;;;5.20;99.90;;;;;;5027313;28;20183;-61
2022/04/28 02:58:48;;;;;;;16.70;14.07;;;5.20;99.90;;;;;;5026250;28;20198;-61
2022/04/28 03:01:13;;;;;;;17.25;14.10;;;5.10;99.90;;;;;;5025176;28;20766;-60
2022/04/28 03:03:39;;;;;;;16.13;13.80;;;5.10;99.90;;;;;;5025480;28;20189;-60
2022/04/28 03:11:46;;;;;;;17.92;14.23;;;4.90;99.90;;;;;;5044024;28;20253;-60
2022/04/28 03:14:12;;;;;;;15.80;14.10;;;4.80;99.90;;;;;;5027216;28;20186;-60
2022/04/28 03:16:38;;;;;;;15.90;14.10;;;4.80;99.90;;;;;;5025525;28;20265;-60
2022/04/28 03:19:04;;;;;;;16.33;14.03;;;4.80;99.90;;;;;;5027929;28;20681;-60
2022/04/28 03:21:31;;;;;;;16.85;14.75;;;4.80;99.90;;;;;;5026593;28;20432;-60
2022/04/28 03:23:57;;;;;;;18.50;15.48;;;4.70;99.90;;;;;;5031037;28;20187;-60
2022/04/28 03:26:23;;;;;;;16.05;14.35;;;4.70;99.90;;;;;;5032440;28;20182;-61
2022/04/28 03:28:48;;;;;;;17.70;14.80;;;4.60;99.90;;;;;;5026609;28;20572;-61
2022/04/28 03:31:14;;;;;;;16.70;14.63;;;4.60;99.90;;;;;;5032607;28;20472;-59
2022/04/28 03:33:40;;;;;;;17.20;14.73;;;4.60;99.90;;;;;;5025822;28;20180;-59
2022/04/28 03:36:50;;;;;;;17.67;14.57;;;4.60;99.90;;;;;;5031517;28;20806;-60
2022/04/28 03:38:51;;;;;;;15.30;13.25;;;4.60;99.90;;;;;;5022068;28;20193;-61
2022/04/28 03:41:17;;;;;;;18.43;14.60;;;4.50;99.90;;;;;;5029457;28;20183;-61
2022/04/28 03:43:44;;;;;;;17.17;14.53;;;4.50;99.90;;;;;;5030164;28;20213;-59
2022/04/28 03:46:11;;;;;;;15.35;13.50;;;4.50;99.90;;;;;;5028556;28;20211;-61
2022/04/28 03:48:37;;;;;;;16.75;14.02;;;4.50;99.90;;;;;;5046634;28;20194;-59
2022/04/28 03:51:03;;;;;;;17.90;14.65;;;4.50;99.90;;;;;;5020060;28;20593;-61
2022/04/28 03:53:29;;;;;;;17.70;14.83;;;4.50;99.90;;;;;;5022064;28;20299;-60
2022/04/28 03:55:55;;;;;;;19.13;15.50;;;4.50;99.90;;;;;;5011946;28;20421;-59
2022/04/28 03:58:21;;;;;;;20.57;15.43;;;4.50;99.90;;;;;;5017794;28;20901;-59
2022/04/28 04:00:49;;;;;;;19.77;15.73;;;4.50;99.90;;;;;;5012687;28;20172;-58
2022/04/28 04:03:15;;;;;;;18.10;14.90;;;4.50;99.90;;;;;;5025204;28;20183;-58
2022/04/28 04:05:41;;;;;;;17.98;14.65;;;4.50;99.90;;;;;;5029357;28;20653;-58
2022/04/28 04:08:06;;;;;;;20.00;15.60;;;4.60;99.90;;;;;;5015055;28;20190;-57
2022/04/28 04:10:32;;;;;;;20.20;15.33;;;4.60;99.90;;;;;;5022872;28;20653;-59
2022/04/28 04:12:57;;;;;;;19.00;14.47;;;4.60;99.90;;;;;;5027210;28;20282;-60
2022/04/28 04:15:23;;;;;;;18.17;15.60;;;4.70;99.90;;;;;;5022602;28;20194;-57
2022/04/28 04:17:48;;;;;;;17.80;15.00;;;4.80;99.90;;;;;;5018641;28;20908;-58
2022/04/28 04:20:15;;;;;;;18.20;14.97;;;4.80;99.90;;;;;;5008113;28;20199;-59
2022/04/28 04:22:41;;;;;;;18.00;14.75;;;4.80;99.90;;;;;;5021822;28;20185;-59
2022/04/28 04:25:07;;;;;;;17.98;15.02;;;4.70;99.90;;;;;;5018786;28;20179;-58
2022/04/28 04:27:33;;;;;;;19.05;14.95;;;4.80;99.90;;;;;;5021669;28;20202;-59
2022/04/28 04:29:59;;;;;;;18.42;15.55;;;4.70;99.90;;;;;;5020681;28;20211;-59
2022/04/28 04:32:25;;;;;;;19.30;14.60;;;4.80;99.90;;;;;;5022218;28;20258;-59
2022/04/28 04:34:52;;;;;;;17.63;14.38;;;4.80;99.90;;;;;;5019730;28;20179;-60
2022/04/28 04:37:18;;;;;;;18.27;14.60;;;4.80;99.90;;;;;;5014359;28;20241;-58
2022/04/28 04:39:44;;;;;;;17.70;14.83;;;4.80;99.90;;;;;;5018529;28;20190;-60
2022/04/28 04:42:10;;;;;;;17.55;14.32;;;4.90;99.90;;;;;;5022911;28;20290;-60
2022/04/28 04:44:35;;;;;;;19.07;15.17;;;4.90;99.90;;;;;;5028766;28;20274;-59
2022/04/28 04:47:01;;;;;;;18.10;14.53;;;4.80;99.90;;;;;;5020476;28;20274;-58
2022/04/28 04:49:27;;;;;;;15.67;14.03;;;4.80;99.90;;;;;;5029691;28;20333;-59
2022/04/28 04:51:52;;;;;;;15.77;14.00;;;4.80;99.90;;;;;;5025420;28;20619;-58
2022/04/28 04:54:18;;;;;;;17.57;13.60;;;4.80;99.90;;;;;;5027651;28;20223;-57
2022/04/28 04:56:43;;;;;;;16.80;13.43;;;4.90;99.90;;;;;;5027384;28;20812;-59
2022/04/28 04:59:09;;;;;;;16.17;13.57;;;4.90;99.90;;;;;;5031070;28;20866;-59
2022/04/28 05:01:35;;;;;;;14.77;13.17;;;4.90;99.90;;;;;;5028735;28;20568;-60
2022/04/28 05:04:00;;;;;;;16.00;14.17;;;5.00;99.90;;;;;;5028659;28;20175;-60
2022/04/28 05:06:26;;;;;;;14.87;13.30;;;5.00;99.90;;;;;;5028102;28;20529;-60
2022/04/28 05:08:52;;;;;;;14.83;13.27;;;5.10;99.90;;;;;;5029684;28;20994;-59
2022/04/28 05:11:18;;;;;;;16.57;14.77;;;5.10;99.90;;;;;;5029761;28;20481;-60
2022/04/28 05:13:43;;;;;;;17.30;13.70;;;5.10;99.90;;;;;;5030180;28;20183;-60
2022/04/28 05:16:09;;;;;;;17.87;14.40;;;5.10;99.90;;;;;;5029367;28;20180;-59
2022/04/28 05:18:35;;;;;;;17.57;14.57;;;5.10;99.90;;;;;;5028821;28;20665;-59
2022/04/28 05:21:00;;;;;;;19.10;14.17;;;5.20;99.90;;;;;;5025624;28;20645;-59
2022/04/28 05:23:26;;;;;;;17.40;15.60;;;5.20;99.90;;;;;;5029929;28;20205;-61
2022/04/28 05:25:52;;;;;;;16.07;13.87;;;5.20;99.90;;;;;;5029027;28;20190;-60
2022/04/28 05:28:17;;;;;;;16.00;13.67;;;5.20;99.90;;;;;;5030426;28;20278;-60
2022/04/28 05:30:43;;;;;;;18.30;14.23;;;5.30;99.90;;;;;;5029402;28;20503;-59
2022/04/28 05:33:08;;;;;;;18.70;15.50;;;5.40;99.90;;;;;;5030179;28;20725;-60
2022/04/28 05:35:41;;;;;;;18.13;13.90;;;5.40;99.90;;;;;;5029656;28;20174;-60
2022/04/28 05:38:10;;;;;;;16.80;14.50;;;5.50;99.90;;;;;;5027922;28;20222;-60
2022/04/28 05:40:38;;;;;;;17.33;14.90;;;5.60;99.90;;;;;;5045509;28;20317;-58
2022/04/28 05:45:48;;;;;;;16.50;14.13;;;5.60;99.90;;;;;;5016850;28;20195;-61
2022/04/28 05:48:15;;;;;;;16.77;13.73;;;5.70;99.90;;;;;;5027948;28;20553;-60
2022/04/28 05:50:42;;;;;;;17.23;13.32;;;5.80;99.90;;;;;;5030106;28;20191;-61
2022/04/28 05:53:08;;;;;;;16.20;12.85;;;5.80;99.90;;;;;;5026251;28;20230;-60
2022/04/28 05:55:34;;;;;;;13.73;12.32;;;5.90;99.90;;;;;;5035640;28;20196;-60
2022/04/28 05:58:00;;;;;;;15.37;12.13;;;6.10;99.90;;;;;;5020476;28;20179;-59
2022/04/28 06:00:30;;;;;;;13.70;11.77;;;6.20;99.90;;;;;;5032188;28;20191;-60
2022/04/28 06:02:56;;;;;;;12.50;11.20;;;6.30;99.90;;;;;;5029690;28;20217;-59
2022/04/28 06:05:21;;;;;;;13.82;11.80;;;6.40;99.90;;;;;;5031760;28;20175;-60
2022/04/28 06:07:47;;;;;;;13.50;11.67;;;6.40;99.90;;;;;;5030365;28;20263;-60
2022/04/28 06:10:13;;;;;;;12.20;11.00;;;6.60;99.90;;;;;;5027250;28;20290;-54
2022/04/28 06:12:39;;;;;;;13.40;12.00;;;6.70;99.90;;;;;;5022282;28;20198;-60
2022/04/28 06:15:06;;;;;;;11.70;10.50;;;6.80;99.90;;;;;;5027192;28;20434;-60
2022/04/28 06:17:31;;;;;;;12.45;11.15;;;6.90;99.90;;;;;;5030739;28;20190;-59
2022/04/28 06:19:57;;;;;;;14.60;11.67;;;7.00;99.90;;;;;;5030341;28;20641;-60
2022/04/28 06:22:22;;;;;;;11.67;10.00;;;7.20;99.90;;;;;;5028587;28;20186;-57
2022/04/28 06:24:55;;;;;;;12.87;10.80;;;7.30;99.90;;;;;;5034619;28;20640;-59
2022/04/28 06:27:21;;;;;;;12.40;9.80;;;7.40;99.90;;;;;;5045777;28;20221;-50
2022/04/28 06:29:48;;;;;;;12.60;10.97;;;7.60;99.90;;;;;;5028201;28;20879;-59
2022/04/28 06:32:17;;;;;;;13.00;10.33;;;7.60;99.90;;;;;;5031200;28;20512;-60
2022/04/28 06:34:43;;;;;;;11.57;10.37;;;7.60;99.90;;;;;;5045025;28;20848;-59
2022/04/28 06:37:10;;;;;;;11.40;10.20;;;7.80;99.90;;;;;;5030354;28;20410;-59
2022/04/28 06:39:36;;;;;;;11.60;10.40;;;8.00;99.90;;;;;;5030543;28;20421;-60
2022/04/28 06:42:02;;;;;;;12.00;10.30;;;8.20;99.90;;;;;;5030343;28;20504;-60
2022/04/28 06:44:27;;;;;;;10.40;9.40;;;8.40;99.90;;;;;;5043647;28;20445;-60
2022/04/28 06:46:53;;;;;;;11.70;10.37;;;8.50;99.90;;;;;;5030746;28;20433;-50
2022/04/28 06:49:18;;;;;;;11.97;10.87;;;8.50;99.90;;;;;;5028670;28;20179;-59
2022/04/28 06:51:44;;;;;;;10.33;9.43;;;8.60;99.90;;;;;;5029202;28;20198;-58
2022/04/28 06:54:09;;;;;;;11.23;9.80;;;8.80;99.90;;;;;;5016343;28;20249;-59
2022/04/28 06:56:35;;;;;;;11.97;10.07;;;9.00;99.90;;;;;;5018621;28;20729;-59
2022/04/28 06:59:00;;;;;;;10.80;9.80;;;9.20;99.90;;;;;;5024691;28;20187;-60
2022/04/28 07:01:26;;;;;;;11.40;9.70;;;9.40;99.90;;;;;;5024698;28;20193;-58
2022/04/28 07:03:52;;;;;;;11.20;9.60;;;9.60;99.90;;;;;;5028803;28;20709;-60
2022/04/28 07:06:17;;;;;;;11.67;9.60;;;9.90;99.90;;;;;;5022789;28;20310;-58
2022/04/28 07:08:45;;;;;;;11.20;10.10;;;10.30;99.90;;;;;;5027367;28;20198;-59
2022/04/28 07:11:11;;;;;;;10.07;9.07;;;10.60;99.90;;;;;;5023295;28;20225;-49
2022/04/28 07:13:37;;;;;;;10.53;9.53;;;10.90;99.90;;;;;;5028835;28;20425;-60
2022/04/28 07:16:06;;;;;;;12.27;10.97;;;11.30;99.90;;;;;;5028013;28;20183;-58
2022/04/28 07:18:31;;;;;;;11.13;9.93;;;11.70;99.90;;;;;;5027152;28;20422;-59
2022/04/28 07:21:00;;;;;;;11.27;10.27;;;12.00;99.90;;;;;;5026121;28;20422;-59
2022/04/28 07:23:26;;;;;;;11.70;10.60;;;12.30;99.90;;;;;;5027776;28;20956;-60
2022/04/28 07:25:51;;;;;;;11.27;10.27;;;12.50;99.90;;;;;;5023050;28;20592;-60
2022/04/28 07:28:17;;;;;;;11.97;10.47;;;12.80;99.90;;;;;;5028691;28;20183;-59
2022/04/28 07:30:43;;;;;;;12.87;11.50;;;13.00;99.90;;;;;;5027820;28;20289;-60
2022/04/28 07:33:08;;;;;;;11.60;10.60;;;13.30;99.20;;;;;;5027859;28;20211;-60
2022/04/28 07:35:34;;;;;;;12.23;11.03;;;13.50;97.70;;;;;;5027733;28;20248;-59
2022/04/28 07:38:00;;;;;;;12.33;11.17;;;13.70;97.80;;;;;;5027919;28;20660;-60
2022/04/28 07:40:26;;;;;;;12.90;11.60;;;14.00;97.30;;;;;;5026845;28;20475;-59
2022/04/28 07:42:52;;;;;;;12.40;11.20;;;14.20;95.90;;;;;;5027639;28;20479;-59
2022/04/28 07:45:17;;;;;;;12.47;11.40;;;14.40;95.00;;;;;;5027856;28;20187;-59
2022/04/28 07:47:43;;;;;;;12.30;11.20;;;14.40;93.60;;;;;;5022195;28;20206;-60
2022/04/28 07:50:10;;;;;;;12.10;11.10;;;14.50;93.20;;;;;;5025295;28;20207;-55
2022/04/28 07:52:37;;;;;;;12.60;11.50;;;14.60;93.20;;;;;;5026772;28;20160;-61
2022/04/28 07:55:03;;;;;;;12.77;11.57;;;14.70;92.30;;;;;;5024469;28;20476;-61
2022/04/28 07:57:28;;;;;;;12.50;11.30;;;14.70;92.30;;;;;;5026555;28;20434;-61
2022/04/28 07:59:54;;;;;;;12.03;10.93;;;14.70;91.60;;;;;;5027164;28;20445;-60
2022/04/28 08:02:19;;;;;;;13.60;12.30;;;14.80;92.00;;;;;;5026997;28;20187;-61
2022/04/28 08:04:45;;;;;;;13.87;12.57;;;14.80;92.10;;;;;;5026708;28;20974;-61
2022/04/28 08:07:10;;;;;;;13.50;12.30;;;14.70;92.40;;;;;;5026194;28;20653;-56
2022/04/28 08:09:36;;;;;;;14.20;12.80;;;14.80;92.40;;;;;;5028054;28;20218;-59
2022/04/28 08:12:02;;;;;;;12.87;11.63;;;14.80;91.30;;;;;;5029435;28;20901;-58
2022/04/28 08:14:28;;;;;;;15.20;13.77;;;14.90;90.40;;;;;;5030719;28;20203;-60
2022/04/28 08:16:54;;;;;;;13.20;12.00;;;15.10;90.80;;;;;;5028708;28;20420;-60
2022/04/28 08:19:20;;;;;;;13.97;12.57;;;15.30;90.90;;;;;;5030121;28;20203;-59
2022/04/28 08:21:47;;;;;;;12.40;11.30;;;15.50;89.80;;;;;;5029770;28;20434;-59
2022/04/28 08:24:13;;;;;;;12.63;11.50;;;15.70;87.90;;;;;;5029291;28;20436;-59
2022/04/28 08:26:39;;;;;;;12.97;11.77;;;16.00;84.50;;;;;;5029919;28;20490;-59
2022/04/28 08:29:05;;;;;;;13.17;11.97;;;16.40;79.60;;;;;;5029349;28;20447;-59
2022/04/28 08:31:32;;;;;;;13.43;12.23;;;16.70;77.80;;;;;;5030737;28;20976;-59
2022/04/28 08:33:57;;;;;;;14.53;13.23;;;16.90;77.30;;;;;;5030841;28;20420;-59
2022/04/28 08:36:23;;;;;;;13.60;12.20;;;17.20;74.90;;;;;;5028556;28;20487;-59
2022/04/28 08:38:49;;;;;;;12.30;11.13;;;17.40;71.00;;;;;;5031377;28;20205;-59
2022/04/28 08:41:33;;;;;;;13.73;12.53;;;17.40;70.60;;;;;;5029787;28;20201;-57
2022/04/28 08:44:00;;;;;;;13.10;11.90;;;17.60;66.90;;;;;;5030822;28;20182;-60
2022/04/28 08:49:12;;;;;;;11.23;10.33;;;17.90;64.00;;;;;;5029679;28;20938;-59
2022/04/28 08:51:39;;;;;;;12.27;11.10;;;18.20;60.40;;;;;;5029162;28;20440;-60
2022/04/28 08:54:05;;;;;;;10.80;9.90;;;18.70;57.00;;;;;;5029025;28;20986;-59
2022/04/28 08:56:31;;;;;;;11.10;10.10;;;19.20;53.70;;;;;;5028948;28;20422;-59
2022/04/28 08:58:57;;;;;;;10.20;9.20;;;19.70;51.50;;;;;;5029768;28;20900;-60
2022/04/28 09:01:27;;;;;;;10.97;10.07;;;19.90;49.80;;;;;;5028818;28;20197;-60
2022/04/28 09:03:57;;;;;;;10.73;9.73;;;20.20;48.00;;;;;;5029974;28;20247;-60
2022/04/28 09:06:28;;;;;;;8.90;8.10;;;20.90;44.50;;;;;;5027482;28;20453;-59
2022/04/28 09:08:55;;;;;;;9.63;8.90;;;20.90;43.30;;;;;;5026943;28;20431;-58
2022/04/28 09:11:23;;;;;;;8.27;7.63;;;20.90;41.40;;;;;;5028005;28;20463;-58
2022/04/28 09:14:09;;;;;;;8.73;8.03;;;20.90;39.40;;;;;;5026168;28;20430;-59
2022/04/28 09:16:42;;;;;;;9.20;8.50;;;21.00;39.90;;;;;;5023124;28;20407;-58
2022/04/28 09:19:15;;;;;;;8.23;7.63;;;21.60;40.10;;;;;;5027836;28;20482;-59
2022/04/28 09:21:41;;;;;;;10.40;9.60;;;22.30;40.10;;;;;;5025788;28;21170;-59
2022/04/28 09:24:09;;;;;;;9.87;8.87;;;23.00;34.70;;;;;;5024391;28;20441;-58
2022/04/28 09:26:35;;;;;;;9.90;9.20;;;22.80;32.80;;;;;;5030000;28;20512;-59
2022/04/28 09:29:02;;;;;;;8.97;8.37;;;22.70;35.10;;;;;;5029096;28;20486;-59
2022/04/28 09:31:38;;;;;;;9.73;8.93;;;23.10;36.20;;;;;;5028230;28;20484;-59
2022/04/28 09:34:12;;;;;;;10.00;9.23;;;23.40;31.00;;;;;;5026846;28;20504;-59
2022/04/28 09:36:39;;;;;;;8.83;8.23;;;23.80;31.10;;;;;;5041580;28;21072;-58
2022/04/28 09:39:06;;;;;;;9.87;9.07;;;24.10;30.60;;;;;;5029053;28;20802;-58
2022/04/28 09:44:19;;;;;;;11.00;10.20;;;23.30;31.10;;;;;;5028595;28;20460;-58
2022/04/28 09:46:46;;;;;;;11.20;10.30;;;22.90;35.20;;;;;;5029473;28;20532;-58
2022/04/28 09:49:13;;;;;;;11.70;10.80;;;22.70;37.80;;;;;;5027026;28;21272;-59
2022/04/28 09:51:39;;;;;;;12.90;11.80;;;22.70;36.30;;;;;;5028922;28;20468;-59
2022/04/28 09:54:08;;;;;;;12.40;11.30;;;22.50;35.20;;;;;;5028881;28;20469;-58
2022/04/28 09:56:36;;;;;;;12.40;11.40;;;22.30;34.50;;;;;;5026047;28;20942;-59
2022/04/28 09:59:05;;;;;;;13.00;11.90;;;22.00;35.50;;;;;;5023863;28;20452;-59
2022/04/28 10:01:31;;;;;;;11.97;10.87;;;21.90;38.40;;;;;;5029876;28;20436;-59
2022/04/28 10:03:57;;;;;;;12.40;11.40;;;22.20;37.80;;;;;;5030459;28;20515;-59
2022/04/28 10:06:25;;;;;;;11.53;10.60;;;22.70;37.10;;;;;;5029428;28;20552;-59
2022/04/28 10:08:52;;;;;;;11.43;10.63;;;23.40;38.00;;;;;;5025443;28;20506;-58
2022/04/28 10:11:22;;;;;;;12.53;11.53;;;24.50;36.70;;;;;;5027503;28;20533;-59
2022/04/28 10:13:50;;;;;;;11.37;10.50;;;25.40;33.50;;;;;;5028040;28;20467;-59
2022/04/28 10:16:19;;;;;;;11.60;10.80;;;26.00;30.30;;;;;;5027613;28;20448;-60
2022/04/28 10:19:11;;;;;;;10.90;10.00;;;26.60;30.20;;;;;;5030606;28;20418;-58
2022/04/28 10:22:01;;;;;;;10.80;10.10;;;26.10;30.50;;;;;;5029239;28;20994;-59
2022/04/28 10:33:18;;;;;;;11.90;10.90;;;26.90;27.70;;;;;;5066401;28;20442;-59
2022/04/28 10:35:50;;;;;;;11.87;10.97;;;27.40;29.10;;;;;;5036339;28;20428;-57
2022/04/28 10:38:31;;;;;;;12.70;11.60;;;27.80;29.00;;;;;;5028496;28;20434;-59
2022/04/28 10:41:02;;;;;;;10.93;10.23;;;27.80;25.60;;;;;;5029400;28;20414;-59
2022/04/28 10:43:33;;;;;;;12.80;11.90;;;26.90;27.80;;;;;;5029020;28;20525;-60
2022/04/28 10:46:24;;;;;;;12.10;11.10;;;27.10;29.20;;;;;;5030127;28;20438;-59
2022/04/28 10:48:53;;;;;;;11.47;10.67;;;27.70;26.90;;;;;;5027281;28;21167;-59
2022/04/28 10:51:20;;;;;;;11.80;11.00;;;27.20;25.40;;;;;;5028981;28;20484;-58
2022/04/28 10:54:03;;;;;;;12.50;11.40;;;27.20;26.70;;;;;;5027745;28;20515;-58
2022/04/28 10:56:53;;;;;;;11.73;10.83;;;27.30;28.30;;;;;;5025429;28;20802;-57
2022/04/28 10:59:34;;;;;;;10.70;10.00;;;28.30;27.80;;;;;;5023849;28;20432;-57
2022/04/28 11:02:26;;;;;;;11.17;10.27;;;28.60;25.90;;;;;;5026970;28;20432;-50
2022/04/28 11:05:22;;;;;;;11.50;10.60;;;29.40;24.90;;;;;;5023023;28;21134;-53
2022/04/28 11:07:47;;;;;;;11.20;10.40;;;30.20;21.50;;;;;;5024998;28;20433;-55
2022/04/28 11:10:14;;;;;;;11.37;10.57;;;29.20;22.60;;;;;;5026705;28;20461;-52
2022/04/28 11:12:43;;;;;;;11.30;10.50;;;28.70;23.10;;;;;;5027166;28;20313;-52
2022/04/28 11:15:14;;;;;;;12.40;11.50;;;28.80;23.90;;;;;;5027084;28;20496;-56
2022/04/28 11:17:43;;;;;;;12.03;11.20;;;28.50;24.30;;;;;;5025692;28;21096;-56
2022/04/28 11:20:12;;;;;;;11.93;11.13;;;28.30;24.80;;;;;;5026543;28;20517;-52
2022/04/28 11:22:43;;;;;;;12.67;11.67;;;28.90;23.60;;;;;;5042240;28;20521;-49
2022/04/28 11:25:10;;;;;;;12.57;11.77;;;28.80;24.10;;;;;;5026824;28;20479;-53
2022/04/28 11:27:36;;;;;;;12.70;11.80;;;29.00;25.00;;;;;;5027251;28;20778;-52
2022/04/28 11:30:03;;;;;;;13.63;12.57;;;29.30;22.90;;;;;;5026765;28;20453;-53
2022/04/28 11:32:28;;;;;;;12.37;11.47;;;29.20;24.00;;;;;;5026262;28;21047;-53
2022/04/28 11:34:56;;;;;;;12.63;11.73;;;28.70;23.70;;;;;;5027981;28;20436;-55
2022/04/28 11:37:24;;;;;;;11.77;10.87;;;28.30;23.80;;;;;;5025883;28;20186;-54
2022/04/28 11:39:52;;;;;;;13.67;12.67;;;28.30;25.30;;;;;;5026202;28;20421;-54
2022/04/28 11:42:19;;;;;;;13.57;12.67;;;28.30;24.00;;;;;;5026005;28;20483;-53
2022/04/28 11:44:51;;;;;;;13.17;12.00;;;28.50;24.60;;;;;;5029265;28;20446;-54
2022/04/28 11:47:17;;;;;;;14.13;13.07;;;28.20;24.80;;;;;;5032035;28;20409;-53
2022/04/28 11:49:43;;;;;;;13.97;12.87;;;27.60;24.30;;;;;;5030687;28;21025;-53
2022/04/28 11:52:35;;;;;;;12.33;11.33;;;27.20;25.20;;;;;;5031564;28;20406;-53
2022/04/28 11:55:06;;;;;;;13.57;12.57;;;27.60;25.60;;;;;;5030679;28;20259;-56
2022/04/28 11:57:33;;;;;;;13.70;12.70;;;27.30;25.80;;;;;;5046101;28;20425;-54
2022/04/28 11:59:59;;;;;;;12.90;11.90;;;27.40;25.60;;;;;;5030024;28;20439;-53
2022/04/28 12:02:36;;;;;;;13.73;12.73;;;28.00;25.50;;;;;;5030862;28;20447;-52
2022/04/28 12:05:06;;;;;;;13.53;12.53;;;28.60;25.30;;;;;;5026247;28;20436;-52
2022/04/28 12:07:36;;;;;;;14.10;13.17;;;29.50;24.20;;;;;;5027923;28;20789;-55
2022/04/28 12:15:33;;;;;;;14.93;13.90;;;30.50;22.80;;;;;;5030927;28;21264;-52
2022/04/28 12:21:13;;;;;;;13.53;12.53;;;28.00;24.50;;;;;;5019030;28;20464;-51
2022/04/28 12:23:41;;;;;;;14.33;13.23;;;26.20;26.00;;;;;;5029714;28;20421;-54
2022/04/28 12:26:08;;;;;;;13.87;12.87;;;25.30;27.40;;;;;;5029692;28;20478;-56
2022/04/28 12:28:41;;;;;;;15.10;13.93;;;24.50;29.60;;;;;;5029583;28;20946;-51
2022/04/28 12:31:09;;;;;;;14.63;13.40;;;24.30;30.00;;;;;;5046036;28;20464;-51
2022/04/28 12:33:37;;;;;;;14.50;13.30;;;24.30;30.50;;;;;;5028673;28;20422;-54
2022/04/28 12:36:05;;;;;;;14.13;13.03;;;24.40;29.50;;;;;;5030757;28;20420;-54
2022/04/28 12:38:34;;;;;;;13.00;11.83;;;24.10;29.30;;;;;;5029579;28;20450;-51
2022/04/28 12:41:12;;;;;;;12.87;11.70;;;23.50;30.30;;;;;;5029266;28;20915;-53
2022/04/28 12:43:42;;;;;;;13.20;12.20;;;23.30;31.80;;;;;;5044695;28;20437;-54
2022/04/28 12:46:09;;;;;;;12.90;11.70;;;23.70;31.70;;;;;;5029964;28;20852;-53
2022/04/28 12:48:37;;;;;;;13.87;12.67;;;24.40;31.90;;;;;;5030573;28;20412;-51
2022/04/28 12:51:20;;;;;;;13.13;12.13;;;25.40;29.00;;;;;;5044411;28;20465;-53
2022/04/28 12:53:55;;;;;;;12.90;12.00;;;26.60;28.10;;;;;;5025786;28;20477;-48
2022/04/28 12:56:29;;;;;;;12.37;11.57;;;26.70;26.70;;;;;;5022979;28;20476;-54
2022/04/28 12:58:57;;;;;;;11.97;11.10;;;26.40;27.10;;;;;;5029492;28;20471;-54
2022/04/28 13:01:24;;;;;;;13.60;12.50;;;26.60;27.00;;;;;;5029602;28;20437;-52
2022/04/28 13:03:55;;;;;;;12.43;11.53;;;26.40;26.80;;;;;;5029452;28;20421;-54
2022/04/28 13:06:22;;;;;;;11.90;11.00;;;26.40;27.40;;;;;;5023204;28;20433;-50
2022/04/28 13:08:51;;;;;;;13.80;12.60;;;27.20;27.40;;;;;;5029920;28;20453;-51
2022/04/28 13:11:21;;;;;;;12.70;11.80;;;27.30;24.60;;;;;;5029657;28;20461;-50